Time;durP1;ratioP1;P1;durP2;ratioP2;P2;SDS_P1;SDS_P2;PMS_P1;PMS_P2;Temp;Humidity;BMP_temperature;BMP_pressure;BME280_temperature;BME280_humidity;BME280_pressure;Samples;Min_cycle;Max_cycle;Signal;HPM_P1;HPM_P2
2022/11/26 00:01:12;;;;;;;29.02;13.50;;;;;;;3.93;100.00;102603.84;5012852;28;20369;-76
2022/11/26 00:03:38;;;;;;;34.13;14.32;;;;;;;3.97;100.00;102610.78;4993309;28;20034;-76
2022/11/26 00:06:03;;;;;;;26.05;12.38;;;;;;;3.98;100.00;102603.97;5012214;28;20492;-76
2022/11/26 00:08:34;;;;;;;40.15;17.73;;;;;;;3.95;100.00;102602.19;5001989;28;20039;-76
2022/11/26 00:11:00;;;;;;;27.77;13.13;;;;;;;3.93;100.00;102616.66;5023313;28;20026;-76
2022/11/26 00:13:28;;;;;;;33.67;12.95;;;;;;;3.93;100.00;102616.66;5012402;28;20048;-76
2022/11/26 00:15:55;;;;;;;29.45;13.07;;;;;;;3.92;100.00;102620.06;5010661;28;20432;-76
2022/11/26 00:18:25;;;;;;;29.00;12.27;;;;;;;3.91;100.00;102620.88;5011608;28;20519;-76
2022/11/26 00:20:55;;;;;;;26.73;12.82;;;;;;;3.89;100.00;102616.53;5010923;28;20033;-76
2022/11/26 00:23:23;;;;;;;24.73;12.02;;;;;;;3.81;100.00;102612.84;5009781;28;20041;-76
2022/11/26 00:25:55;;;;;;;27.67;12.85;;;;;;;3.77;100.00;102626.38;5015341;28;20032;-76
2022/11/26 00:28:31;;;;;;;24.05;11.45;;;;;;;3.72;100.00;102631.34;5010285;28;20038;-76
2022/11/26 00:30:59;;;;;;;28.17;11.75;;;;;;;3.67;100.00;102624.34;5011643;28;20109;-76
2022/11/26 00:33:27;;;;;;;27.23;11.50;;;;;;;3.64;100.00;102632.78;5011795;28;20030;-76
2022/11/26 00:36:00;;;;;;;26.17;11.75;;;;;;;3.64;100.00;102621.66;4988591;28;20551;-77
2022/11/26 00:38:26;;;;;;;25.48;12.10;;;;;;;3.58;100.00;102623.22;5011438;28;20026;-76
2022/11/26 00:40:52;;;;;;;22.75;11.38;;;;;;;3.54;100.00;102623.06;5012006;28;20040;-76
2022/11/26 00:43:17;;;;;;;28.90;12.05;;;;;;;3.53;100.00;102627.31;5012401;28;20034;-76
2022/11/26 00:45:43;;;;;;;23.77;11.85;;;;;;;3.51;100.00;102625.50;5011000;28;20034;-76
2022/11/26 00:48:09;;;;;;;24.40;11.35;;;;;;;3.46;100.00;102620.25;5007353;28;20489;-76
2022/11/26 00:50:41;;;;;;;26.02;12.48;;;;;;;3.44;100.00;102626.13;5018181;28;20040;-76
2022/11/26 00:53:11;;;;;;;24.08;11.48;;;;;;;3.39;100.00;102627.66;5019433;28;20033;-76
2022/11/26 00:55:39;;;;;;;25.13;11.48;;;;;;;3.36;100.00;102624.97;5011643;28;20022;-76
2022/11/26 00:58:11;;;;;;;25.98;12.02;;;;;;;3.30;100.00;102627.34;5011868;28;20049;-76
2022/11/26 01:00:37;;;;;;;26.88;11.80;;;;;;;3.29;100.00;102630.72;5008468;28;20455;-76
2022/11/26 01:03:02;;;;;;;22.42;11.43;;;;;;;3.25;100.00;102631.44;5001896;28;20487;-76
2022/11/26 01:05:30;;;;;;;25.90;11.10;;;;;;;3.21;100.00;102630.44;5002147;28;20546;-76
2022/11/26 01:08:06;;;;;;;33.28;12.35;;;;;;;3.18;100.00;102641.47;5010894;28;20041;-76
2022/11/26 01:10:32;;;;;;;24.75;11.57;;;;;;;3.13;100.00;102637.88;5012111;28;20144;-76
2022/11/26 01:12:57;;;;;;;27.40;11.35;;;;;;;3.13;100.00;102639.56;5010908;28;20100;-76
2022/11/26 01:15:24;;;;;;;28.45;12.07;;;;;;;3.08;100.00;102639.41;5012020;28;20021;-76
2022/11/26 01:17:51;;;;;;;28.27;11.65;;;;;;;3.05;100.00;102639.31;5010511;28;20499;-77
2022/11/26 01:20:28;;;;;;;23.52;11.73;;;;;;;3.03;100.00;102642.63;5021513;28;20056;-77
2022/11/26 01:22:56;;;;;;;21.48;11.13;;;;;;;3.03;100.00;102645.19;5010186;28;20029;-77
2022/11/26 01:25:22;;;;;;;27.50;12.50;;;;;;;3.00;100.00;102639.97;5010605;28;20065;-77
2022/11/26 01:27:48;;;;;;;23.90;10.80;;;;;;;2.99;100.00;102644.22;5010607;28;20060;-77
2022/11/26 01:30:20;;;;;;;25.25;12.23;;;;;;;2.97;100.00;102638.16;5005483;28;20404;-77
2022/11/26 01:32:47;;;;;;;24.25;11.25;;;;;;;2.94;100.00;102640.59;5009952;28;20025;-77
2022/11/26 01:35:13;;;;;;;22.13;11.48;;;;;;;2.93;100.00;102643.13;5022840;28;20021;-77
2022/11/26 01:37:38;;;;;;;26.30;11.55;;;;;;;2.89;100.00;102644.69;5009627;28;20095;-77
2022/11/26 01:40:17;;;;;;;24.13;11.15;;;;;;;2.86;100.00;102636.03;5011500;28;20030;-77
2022/11/26 01:42:47;;;;;;;25.70;11.85;;;;;;;2.85;100.00;102637.72;5011400;28;20025;-77
2022/11/26 01:45:18;;;;;;;25.75;12.43;;;;;;;2.80;100.00;102636.66;5010755;28;20472;-77
2022/11/26 01:47:47;;;;;;;21.27;11.82;;;;;;;2.80;100.00;102634.09;5008898;28;20029;-77
2022/11/26 01:50:30;;;;;;;29.65;11.77;;;;;;;2.80;100.00;102648.59;5024077;28;20373;-77
2022/11/26 01:53:27;;;;;;;23.63;11.55;;;;;;;2.78;100.00;102646.84;5010277;28;20511;-77
2022/11/26 01:55:58;;;;;;;22.63;10.63;;;;;;;2.71;100.00;102641.44;4984028;28;20037;-77
2022/11/26 01:58:30;;;;;;;22.70;11.32;;;;;;;2.68;100.00;102647.31;5010931;28;20396;-77
2022/11/26 02:00:56;;;;;;;21.58;10.85;;;;;;;2.67;100.00;102655.81;5010204;28;20103;-77
2022/11/26 02:03:22;;;;;;;25.85;11.93;;;;;;;2.63;100.00;102658.19;5008995;28;20081;-77
2022/11/26 02:06:02;;;;;;;26.00;11.88;;;;;;;2.60;100.00;102663.19;5007223;28;20566;-77
2022/11/26 02:08:30;;;;;;;23.83;11.30;;;;;;;2.56;100.00;102659.66;5009943;28;20099;-77
2022/11/26 02:10:55;;;;;;;26.48;11.85;;;;;;;2.56;100.00;102658.78;5011403;28;20037;-77
2022/11/26 02:13:22;;;;;;;19.67;10.85;;;;;;;2.52;100.00;102660.38;5010968;28;20030;-77
2022/11/26 02:16:19;;;;;;;24.30;11.23;;;;;;;2.52;100.00;102665.50;5008714;28;20022;-77
2022/11/26 02:18:55;;;;;;;20.60;10.98;;;;;;;2.47;100.00;102666.09;5009459;28;20034;-77
2022/11/26 02:21:26;;;;;;;25.27;11.32;;;;;;;2.46;100.00;102670.34;4991703;28;20060;-77
2022/11/26 02:24:21;;;;;;;26.65;11.18;;;;;;;2.41;100.00;102676.09;5010006;28;20037;-77
2022/11/26 02:27:28;;;;;;;27.25;11.70;;;;;;;2.40;100.00;102682.91;5010685;28;20065;-77
2022/11/26 02:30:02;;;;;;;27.88;12.20;;;;;;;2.41;100.00;102692.34;5009928;28;20548;-77
2022/11/26 02:32:31;;;;;;;;;;;;;;;2.43;100.00;102690.72;5010929;28;20463;-77
2022/11/26 02:35:03;;;;;;;25.35;12.23;;;;;;;2.48;100.00;102689.19;5010783;28;20410;-77
2022/11/26 02:37:33;;;;;;;29.48;12.32;;;;;;;2.54;100.00;102692.00;5008781;28;20060;-77
2022/11/26 02:39:59;;;;;;;34.85;13.65;;;;;;;2.60;100.00;102683.66;5010885;28;20097;-77
2022/11/26 02:42:31;;;;;;;32.95;13.77;;;;;;;2.66;100.00;102686.50;5010309;28;20104;-77
2022/11/26 02:45:01;;;;;;;37.33;14.02;;;;;;;2.70;100.00;102686.66;5009915;28;20542;-77
2022/11/26 02:47:28;;;;;;;35.47;14.55;;;;;;;2.71;100.00;102669.59;5000721;28;20037;-77
2022/11/26 02:49:57;;;;;;;37.13;14.85;;;;;;;2.77;100.00;102675.84;5010679;28;20101;-77
2022/11/26 02:52:24;;;;;;;35.80;14.88;;;;;;;2.83;100.00;102674.31;5008737;28;20029;-77
2022/11/26 02:54:51;;;;;;;34.58;14.07;;;;;;;2.84;100.00;102676.94;5010671;28;20022;-77
2022/11/26 02:57:23;;;;;;;41.45;14.90;;;;;;;2.85;100.00;102682.94;5010070;28;20030;-77
2022/11/26 02:59:48;;;;;;;34.13;14.75;;;;;;;2.85;100.00;102685.50;5009607;28;20034;-77
2022/11/26 03:02:37;;;;;;;34.53;15.05;;;;;;;2.87;100.00;102688.97;5007987;28;20056;-77
2022/11/26 03:05:05;;;;;;;36.30;14.85;;;;;;;2.86;100.00;102685.56;5009611;28;20022;-77
2022/11/26 03:07:31;;;;;;;26.38;14.15;;;;;;;2.89;100.00;102692.47;4992233;28;20531;-77
2022/11/26 03:09:58;;;;;;;29.27;14.10;;;;;;;2.91;100.00;102690.84;5010605;28;20030;-77
2022/11/26 03:12:24;;;;;;;35.90;14.13;;;;;;;2.90;100.00;102691.66;5008180;28;20030;-77
2022/11/26 03:14:50;;;;;;;40.92;14.43;;;;;;;2.87;100.00;102696.63;5010000;28;20036;-77
2022/11/26 03:17:16;;;;;;;33.05;14.32;;;;;;;2.88;100.00;102690.72;5011731;28;20167;-77
2022/11/26 03:19:41;;;;;;;39.63;14.25;;;;;;;2.89;100.00;102697.56;5012873;28;20026;-77
2022/11/26 03:22:07;;;;;;;40.88;15.02;;;;;;;2.88;100.00;102712.06;5013831;28;20519;-77
2022/11/26 03:24:33;;;;;;;37.97;14.60;;;;;;;2.86;100.00;102713.72;5013911;28;20030;-77
2022/11/26 03:26:59;;;;;;;28.60;13.80;;;;;;;2.84;100.00;102720.47;5025378;28;20074;-77
2022/11/26 03:29:25;;;;;;;30.10;13.43;;;;;;;2.86;100.00;102716.28;4995242;28;20500;-77
2022/11/26 03:31:50;;;;;;;30.40;13.20;;;;;;;2.83;100.00;102715.28;5011266;28;20034;-77
2022/11/26 03:34:15;;;;;;;30.73;14.13;;;;;;;2.84;100.00;102725.59;5013549;28;20022;-77
2022/11/26 03:36:42;;;;;;;35.58;14.85;;;;;;;2.85;100.00;102723.91;5013221;28;20036;-77
2022/11/26 03:39:07;;;;;;;31.67;13.82;;;;;;;2.84;100.00;102730.72;5013653;28;20113;-77
2022/11/26 03:41:32;;;;;;;31.67;14.45;;;;;;;2.83;100.00;102722.97;5012614;28;20197;-77
2022/11/26 03:43:58;;;;;;;27.33;13.55;;;;;;;2.81;100.00;102725.47;5012874;28;20033;-77
2022/11/26 03:46:23;;;;;;;32.47;13.35;;;;;;;2.80;100.00;102722.88;5010715;28;20033;-77
2022/11/26 03:48:48;;;;;;;29.52;13.98;;;;;;;2.78;100.00;102727.91;5011731;28;20028;-77
2022/11/26 03:51:14;;;;;;;33.22;14.73;;;;;;;2.77;100.00;102726.16;5012201;28;20488;-77
2022/11/26 03:53:39;;;;;;;29.67;12.93;;;;;;;2.76;100.00;102725.28;5012858;28;20484;-77
2022/11/26 03:56:04;;;;;;;39.55;14.20;;;;;;;2.74;100.00;102732.03;5012685;28;20492;-77
2022/11/26 03:58:30;;;;;;;25.65;12.40;;;;;;;2.73;100.00;102724.28;5012794;28;20037;-77
2022/11/26 04:00:55;;;;;;;30.90;13.00;;;;;;;2.73;100.00;102726.84;5006532;28;20018;-77
2022/11/26 04:03:21;;;;;;;25.40;12.68;;;;;;;2.74;100.00;102738.84;5009659;28;20464;-77
2022/11/26 04:05:46;;;;;;;26.30;12.85;;;;;;;2.72;100.00;102735.38;5013032;28;20555;-77
2022/11/26 04:08:12;;;;;;;28.95;13.05;;;;;;;2.68;100.00;102726.69;5012468;28;20025;-77
2022/11/26 04:10:37;;;;;;;31.95;13.45;;;;;;;2.67;100.00;102731.72;5016751;28;20464;-77
2022/11/26 04:13:02;;;;;;;31.58;13.75;;;;;;;2.67;100.00;102731.72;5014520;28;20030;-77
2022/11/26 04:15:28;;;;;;;26.67;12.60;;;;;;;2.65;100.00;102739.38;5012919;28;20084;-77
2022/11/26 04:17:53;;;;;;;26.67;12.10;;;;;;;2.67;100.00;102747.09;5011544;28;20031;-77
2022/11/26 04:20:18;;;;;;;23.98;12.27;;;;;;;2.64;100.00;102747.00;5012999;28;20029;-77
2022/11/26 04:22:44;;;;;;;32.40;12.95;;;;;;;2.62;100.00;102763.97;5012512;28;20387;-78
2022/11/26 04:25:09;;;;;;;29.83;12.18;;;;;;;2.61;100.00;102759.66;5011643;28;20036;-77
2022/11/26 04:27:35;;;;;;;29.95;12.20;;;;;;;2.59;100.00;102753.63;5018584;28;20484;-77
2022/11/26 04:30:00;;;;;;;30.77;12.77;;;;;;;2.58;100.00;102754.44;5010210;28;20033;-77
2022/11/26 04:32:26;;;;;;;31.13;12.60;;;;;;;2.58;100.00;102767.22;5012210;28;20022;-77
2022/11/26 04:34:51;;;;;;;25.10;11.88;;;;;;;2.56;100.00;102771.41;5012376;28;20463;-77
2022/11/26 04:37:16;;;;;;;28.00;12.32;;;;;;;2.51;100.00;102765.25;5012240;28;20108;-77
2022/11/26 04:39:42;;;;;;;24.63;11.82;;;;;;;2.49;100.00;102770.28;5010110;28;20013;-77
2022/11/26 04:42:07;;;;;;;27.25;11.57;;;;;;;2.50;100.00;102778.84;5012269;28;20080;-77
2022/11/26 04:44:32;;;;;;;27.55;12.93;;;;;;;2.47;100.00;102769.34;5010423;28;20507;-77
2022/11/26 04:46:58;;;;;;;31.42;12.05;;;;;;;2.46;100.00;102766.75;5012054;28;20036;-77
2022/11/26 04:49:23;;;;;;;22.63;11.50;;;;;;;2.42;100.00;102759.75;5011239;28;20108;-77
2022/11/26 04:51:48;;;;;;;27.15;11.70;;;;;;;2.36;100.00;102758.69;4994416;28;20034;-77
2022/11/26 04:54:14;;;;;;;26.38;10.50;;;;;;;2.36;100.00;102760.38;5011165;28;20480;-77
2022/11/26 04:56:39;;;;;;;23.05;10.98;;;;;;;2.35;100.00;102766.28;5011736;28;20030;-77
2022/11/26 04:59:04;;;;;;;27.27;11.07;;;;;;;2.33;100.00;102768.78;5011101;28;20026;-77
2022/11/26 05:01:30;;;;;;;22.95;10.68;;;;;;;2.29;100.00;102766.94;5007713;28;20026;-77
2022/11/26 05:03:55;;;;;;;25.02;11.70;;;;;;;2.26;100.00;102768.47;5011118;28;20017;-77
2022/11/26 05:06:20;;;;;;;23.70;10.70;;;;;;;2.23;100.00;102776.91;5011415;28;20054;-77
2022/11/26 05:08:46;;;;;;;24.70;11.05;;;;;;;2.20;100.00;102769.09;5011759;28;20044;-77
2022/11/26 05:11:11;;;;;;;25.88;10.43;;;;;;;2.15;100.00;102775.72;5025964;28;20097;-77
2022/11/26 05:13:36;;;;;;;21.10;10.23;;;;;;;2.14;100.00;102778.19;5011521;28;20627;-77
2022/11/26 05:16:02;;;;;;;24.35;10.75;;;;;;;2.11;100.00;102780.66;5007971;28;20377;-77
2022/11/26 05:18:27;;;;;;;22.70;10.30;;;;;;;2.08;100.00;102778.81;5011513;28;20041;-77
2022/11/26 05:20:53;;;;;;;20.85;10.48;;;;;;;2.04;100.00;102776.09;5011702;28;20054;-77
2022/11/26 05:23:18;;;;;;;23.70;10.45;;;;;;;2.01;100.00;102781.94;4992193;28;20033;-77
2022/11/26 05:25:43;;;;;;;23.40;10.38;;;;;;;1.98;100.00;102782.66;5011587;28;20017;-77
2022/11/26 05:28:09;;;;;;;27.50;11.15;;;;;;;1.96;100.00;102789.41;5011245;28;20025;-77
2022/11/26 05:30:35;;;;;;;24.52;10.68;;;;;;;1.93;100.00;102794.38;4998284;28;20113;-77
2022/11/26 05:33:00;;;;;;;20.08;10.35;;;;;;;1.91;100.00;102790.03;5010320;28;20036;-77
2022/11/26 05:35:26;;;;;;;24.02;10.70;;;;;;;1.88;100.00;102793.31;5004106;28;20034;-77
2022/11/26 05:37:51;;;;;;;27.20;11.13;;;;;;;1.85;100.00;102789.75;5010599;28;20037;-77
2022/11/26 05:40:17;;;;;;;22.05;10.32;;;;;;;1.84;100.00;102793.13;5008590;28;20026;-77
2022/11/26 05:42:42;;;;;;;25.88;10.93;;;;;;;1.80;100.00;102784.44;5010140;28;20041;-77
2022/11/26 05:45:08;;;;;;;20.98;10.73;;;;;;;1.77;100.00;102780.91;5010465;28;20036;-77
2022/11/26 05:47:33;;;;;;;20.80;9.82;;;;;;;1.77;100.00;102786.91;5008914;28;20053;-77
2022/11/26 05:49:59;;;;;;;20.75;9.70;;;;;;;1.75;100.00;102795.28;5011247;28;20025;-77
2022/11/26 05:52:24;;;;;;;23.45;10.50;;;;;;;1.75;100.00;102796.16;5016682;28;20033;-77
2022/11/26 05:54:49;;;;;;;22.73;10.48;;;;;;;1.72;100.00;102800.25;5011089;28;20028;-77
2022/11/26 05:57:15;;;;;;;20.60;10.45;;;;;;;1.70;100.00;102797.66;5009915;28;20488;-78
2022/11/26 05:59:40;;;;;;;20.23;9.57;;;;;;;1.67;100.00;102801.75;5009777;28;20554;-77
2022/11/26 06:02:05;;;;;;;22.00;10.38;;;;;;;1.65;100.00;102808.47;4997583;28;21761;-77
2022/11/26 06:04:31;;;;;;;23.02;10.05;;;;;;;1.62;100.00;102809.22;5009193;28;20543;-77
2022/11/26 06:06:56;;;;;;;22.23;10.27;;;;;;;1.58;100.00;102823.53;5012798;28;20045;-77
2022/11/26 06:09:22;;;;;;;20.75;9.93;;;;;;;1.59;100.00;102821.84;5012806;28;20108;-78
2022/11/26 06:11:49;;;;;;;21.95;10.18;;;;;;;1.59;100.00;102821.84;5009461;28;20037;-77
2022/11/26 06:14:14;;;;;;;22.92;10.02;;;;;;;1.60;100.00;102821.03;4992220;28;20030;-77
2022/11/26 06:16:40;;;;;;;18.75;9.43;;;;;;;1.59;100.00;102824.41;5010492;28;20029;-77
2022/11/26 06:19:05;;;;;;;23.42;9.57;;;;;;;1.59;100.00;102830.38;5009886;28;20034;-78
2022/11/26 06:21:30;;;;;;;23.95;9.80;;;;;;;1.54;100.00;102826.75;5019814;28;20109;-77
2022/11/26 06:23:56;;;;;;;25.02;9.75;;;;;;;1.54;100.00;102825.88;5008397;28;20034;-77
2022/11/26 06:26:21;;;;;;;24.77;9.57;;;;;;;1.51;100.00;102824.06;5010798;28;20017;-77
2022/11/26 06:28:46;;;;;;;24.17;9.88;;;;;;;1.54;100.00;102829.31;5010024;28;20113;-78
2022/11/26 06:31:12;;;;;;;19.60;9.07;;;;;;;1.55;100.00;102833.63;5003033;28;20021;-77
2022/11/26 06:33:37;;;;;;;23.85;9.93;;;;;;;1.56;100.00;102837.06;5008907;28;20032;-77
2022/11/26 06:36:04;;;;;;;22.30;9.68;;;;;;;1.56;100.00;102840.50;5009611;28;20232;-77
2022/11/26 06:38:29;;;;;;;24.63;9.85;;;;;;;1.54;100.00;102834.44;5011406;28;20072;-77
2022/11/26 06:41:03;;;;;;;22.58;10.00;;;;;;;1.53;100.00;102835.22;4999933;28;20053;-77
2022/11/26 06:43:29;;;;;;;21.65;9.50;;;;;;;1.54;100.00;102836.97;5006039;28;20377;-77
2022/11/26 06:46:03;;;;;;;26.08;9.57;;;;;;;1.52;100.00;102840.25;5014218;28;20113;-77
2022/11/26 06:48:28;;;;;;;23.60;10.13;;;;;;;1.55;100.00;102850.63;5009965;28;20041;-77
2022/11/26 06:50:53;;;;;;;24.10;10.43;;;;;;;1.53;100.00;102849.69;5012105;28;20030;-77
2022/11/26 06:53:19;;;;;;;33.30;11.00;;;;;;;1.55;100.00;102848.97;5013042;28;20050;-77
2022/11/26 06:55:44;;;;;;;23.13;10.27;;;;;;;1.56;100.00;102849.84;5014337;28;20174;-77
2022/11/26 06:58:10;;;;;;;26.63;10.98;;;;;;;1.57;100.00;102852.44;5012942;28;20036;-77
2022/11/26 07:00:35;;;;;;;25.88;11.27;;;;;;;1.58;100.00;102845.66;5013098;28;20022;-77
2022/11/26 07:03:00;;;;;;;26.63;10.73;;;;;;;1.59;100.00;102855.94;5013190;28;21236;-77
2022/11/26 07:05:26;;;;;;;25.63;10.65;;;;;;;1.62;100.00;102851.78;5011829;28;20030;-77
2022/11/26 07:07:51;;;;;;;26.42;11.25;;;;;;;1.61;100.00;102845.81;5013435;28;20065;-78
2022/11/26 07:10:17;;;;;;;26.73;10.93;;;;;;;1.60;100.00;102854.25;5014642;28;20085;-77
2022/11/26 07:12:42;;;;;;;22.42;10.77;;;;;;;1.61;100.00;102860.25;5016076;28;20025;-78
2022/11/26 07:15:08;;;;;;;26.50;11.23;;;;;;;1.63;100.00;102859.53;5010049;28;20113;-77
2022/11/26 07:17:33;;;;;;;24.58;10.60;;;;;;;1.64;100.00;102865.53;5008226;28;20032;-77
2022/11/26 07:19:58;;;;;;;35.65;12.75;;;;;;;1.65;100.00;102870.69;5013569;28;20116;-78
2022/11/26 07:22:24;;;;;;;29.65;12.40;;;;;;;1.67;100.00;102875.88;5012701;28;20405;-78
2022/11/26 07:24:49;;;;;;;27.20;11.50;;;;;;;1.67;100.00;102878.41;5013762;28;20022;-77
2022/11/26 07:27:14;;;;;;;28.42;12.60;;;;;;;1.68;100.00;102881.06;5011763;28;20033;-78
2022/11/26 07:29:40;;;;;;;32.63;12.25;;;;;;;1.71;100.00;102882.84;5009954;28;20036;-78
2022/11/26 07:32:05;;;;;;;31.10;12.55;;;;;;;1.73;100.00;102887.25;5013445;28;20026;-77
2022/11/26 07:34:30;;;;;;;28.75;11.77;;;;;;;1.77;100.00;102890.81;4994248;28;20700;-77
2022/11/26 07:36:56;;;;;;;36.40;14.27;;;;;;;1.81;100.00;102885.91;5012430;28;20034;-77
2022/11/26 07:39:21;;;;;;;34.05;14.23;;;;;;;1.84;100.00;102883.47;5014269;28;21722;-77
2022/11/26 07:41:46;;;;;;;30.55;13.82;;;;;;;1.88;100.00;102882.81;5009203;28;20538;-77
2022/11/26 07:44:13;;;;;;;38.20;14.27;;;;;;;1.89;100.00;102887.13;5011658;28;20025;-77
2022/11/26 07:46:38;;;;;;;31.58;12.70;;;;;;;1.95;100.00;102889.97;5013080;28;20026;-77
2022/11/26 07:49:04;;;;;;;38.25;14.13;;;;;;;1.96;100.00;102889.16;5010453;28;20029;-77
2022/11/26 07:51:31;;;;;;;38.33;15.10;;;;;;;1.99;100.00;102880.72;5011959;28;20447;-77
2022/11/26 07:53:59;;;;;;;37.65;16.13;;;;;;;2.02;100.00;102888.53;5013477;28;20030;-77
2022/11/26 07:56:25;;;;;;;30.92;13.68;;;;;;;2.09;100.00;102890.56;5016640;28;20025;-77
2022/11/26 07:58:51;;;;;;;36.25;15.68;;;;;;;2.15;100.00;102889.94;5016645;28;20065;-77
2022/11/26 08:01:22;;;;;;;36.42;14.57;;;;;;;2.18;100.00;102887.53;5009254;28;20026;-77
2022/11/26 08:03:49;;;;;;;48.75;16.92;;;;;;;2.24;100.00;102883.56;5011923;28;20026;-77
2022/11/26 08:06:17;;;;;;;45.75;16.42;;;;;;;2.29;100.00;102882.06;5013027;28;20038;-77
2022/11/26 08:08:43;;;;;;;44.85;17.25;;;;;;;2.36;100.00;102884.06;5004744;28;20103;-77
2022/11/26 08:11:14;;;;;;;45.75;16.60;;;;;;;2.48;100.00;102890.50;5011775;28;20025;-77
2022/11/26 08:13:40;;;;;;;50.65;18.08;;;;;;;2.58;100.00;102883.28;4991633;28;20373;-77
2022/11/26 08:16:06;;;;;;;49.58;17.65;;;;;;;2.67;100.00;102883.66;5010517;28;20030;-77
2022/11/26 08:18:31;;;;;;;50.30;17.33;;;;;;;2.81;100.00;102888.47;5011194;28;20037;-77
2022/11/26 08:20:57;;;;;;;50.47;17.50;;;;;;;2.91;100.00;102886.34;5017058;28;20548;-77
2022/11/26 08:23:24;;;;;;;51.05;17.88;;;;;;;3.06;100.00;102891.22;5012083;28;20078;-77
2022/11/26 08:25:50;;;;;;;53.70;17.38;;;;;;;3.18;100.00;102886.56;5012466;28;20610;-77
2022/11/26 08:28:15;;;;;;;50.42;16.75;;;;;;;3.32;100.00;102889.69;5012289;28;20029;-77
2022/11/26 08:30:40;;;;;;;44.30;16.10;;;;;;;3.45;100.00;102890.22;5011605;28;20030;-77
2022/11/26 08:33:06;;;;;;;46.65;16.63;;;;;;;3.57;100.00;102897.47;5010262;28;20037;-76
2022/11/26 08:35:34;;;;;;;50.90;16.30;;;;;;;3.71;100.00;102892.88;5009828;28;20388;-76
2022/11/26 08:37:59;;;;;;;44.75;15.82;;;;;;;3.80;100.00;102896.66;5006300;28;20022;-76
2022/11/26 08:40:25;;;;;;;47.70;16.13;;;;;;;3.91;100.00;102900.47;5007119;28;20026;-77
2022/11/26 08:42:50;;;;;;;45.33;15.57;;;;;;;3.99;100.00;102903.31;5011093;28;20025;-77
2022/11/26 08:45:15;;;;;;;48.88;16.25;;;;;;;4.06;100.00;102900.16;5010177;28;20032;-77
2022/11/26 08:47:40;;;;;;;41.55;15.10;;;;;;;4.13;100.00;102896.13;5012065;28;20026;-77
2022/11/26 08:50:06;;;;;;;43.35;15.05;;;;;;;4.24;100.00;102907.63;4989460;28;20442;-77
2022/11/26 08:52:32;;;;;;;41.15;14.32;;;;;;;4.32;100.00;102909.66;5011879;28;20037;-77
2022/11/26 08:54:57;;;;;;;40.17;14.77;;;;;;;4.39;100.00;102905.59;5010739;28;20080;-77
2022/11/26 08:57:22;;;;;;;39.92;14.07;;;;;;;4.47;100.00;102898.19;5010480;28;20451;-77
2022/11/26 08:59:49;;;;;;;45.20;14.43;;;;;;;4.52;100.00;102888.94;5011186;28;20036;-77
2022/11/26 09:02:14;;;;;;;38.80;13.63;;;;;;;4.59;100.00;102884.06;5007513;28;20022;-77
2022/11/26 09:04:40;;;;;;;37.30;14.15;;;;;;;4.68;100.00;102896.34;5011130;28;20028;-77
2022/11/26 09:07:06;;;;;;;38.47;12.90;;;;;;;4.73;100.00;102893.09;5011480;28;20054;-77
2022/11/26 09:09:31;;;;;;;33.70;12.52;;;;;;;4.82;100.00;102894.22;5014729;28;20034;-77
2022/11/26 09:11:59;;;;;;;38.35;12.63;;;;;;;4.90;100.00;102900.50;5012735;28;20026;-77
2022/11/26 09:14:27;;;;;;;43.80;13.75;;;;;;;4.98;100.00;102904.19;5010186;28;20083;-77
2022/11/26 09:16:55;;;;;;;35.45;12.25;;;;;;;5.06;100.00;102907.84;5008263;28;20021;-77
2022/11/26 09:19:20;;;;;;;39.00;13.15;;;;;;;5.14;100.00;102909.84;5010329;28;20499;-77
2022/11/26 09:21:46;;;;;;;36.35;13.00;;;;;;;5.22;100.00;102915.22;5009713;28;20034;-77
2022/11/26 09:24:12;;;;;;;36.88;12.93;;;;;;;5.32;100.00;102912.09;5010211;28;20040;-77
2022/11/26 09:26:38;;;;;;;36.80;12.10;;;;;;;5.40;100.00;102913.22;4990507;28;20030;-77
2022/11/26 09:29:03;;;;;;;36.83;12.25;;;;;;;5.50;100.00;102917.84;5008164;28;20404;-77
2022/11/26 09:31:29;;;;;;;29.42;12.32;;;;;;;5.57;100.00;102924.91;5007462;28;20119;-77
2022/11/26 09:33:57;;;;;;;37.10;12.20;;;;;;;5.64;100.00;102925.09;5010975;28;20147;-77
2022/11/26 09:36:23;;;;;;;34.85;12.00;;;;;;;5.68;100.00;102924.34;5010196;28;20030;-77
2022/11/26 09:38:52;;;;;;;36.00;12.02;;;;;;;5.73;100.00;102928.78;5011985;28;20029;-77
2022/11/26 09:41:29;;;;;;;34.80;11.95;;;;;;;5.81;100.00;102929.91;5002050;28;20632;-77
2022/11/26 09:44:25;;;;;;;33.63;12.13;;;;;;;5.90;100.00;102934.47;5014954;28;20063;-77
2022/11/26 09:47:17;;;;;;;32.45;11.98;;;;;;;5.93;100.00;102950.91;4993589;28;20028;-77
2022/11/26 09:49:54;;;;;;;30.13;12.10;;;;;;;6.04;100.00;102947.75;5010115;28;20037;-76
2022/11/26 09:52:22;;;;;;;27.60;11.52;;;;;;;6.07;100.00;102929.84;5009638;28;20038;-76
2022/11/26 09:54:53;;;;;;;44.30;12.75;;;;;;;6.11;100.00;102922.22;5010483;28;20114;-76
2022/11/26 09:57:28;;;;;;;34.17;12.48;;;;;;;6.22;100.00;102922.50;4992370;28;20424;-76
2022/11/26 09:59:55;;;;;;;38.33;12.40;;;;;;;6.37;100.00;102922.06;5008635;28;20021;-76
2022/11/26 10:02:20;;;;;;;38.20;12.57;;;;;;;6.50;100.00;102929.28;4993175;28;20112;-77
2022/11/26 10:04:46;;;;;;;37.97;11.90;;;;;;;6.60;100.00;102928.72;5009886;28;20104;-77
2022/11/26 10:07:45;;;;;;;39.63;12.10;;;;;;;6.67;100.00;102926.34;5012420;28;20033;-77
2022/11/26 10:10:47;;;;;;;27.20;11.15;;;;;;;6.78;100.00;102926.59;4988641;28;20042;-76
2022/11/26 10:13:28;;;;;;;38.63;11.55;;;;;;;6.82;100.00;102923.28;4981101;28;20492;-76
2022/11/26 10:16:05;;;;;;;30.40;10.73;;;;;;;6.88;100.00;102930.28;4992364;28;20041;-76
2022/11/26 10:18:58;;;;;;;34.05;10.95;;;;;;;6.96;100.00;102926.19;4993352;28;20061;-76
2022/11/26 10:21:47;;;;;;;29.77;10.80;;;;;;;6.99;100.00;102929.69;5010095;28;20108;-76
2022/11/26 10:24:28;;;;;;;31.33;10.70;;;;;;;7.02;100.00;102932.38;5011844;28;20040;-76
2022/11/26 10:26:55;;;;;;;31.98;10.80;;;;;;;7.03;100.00;102931.50;5014227;28;20030;-76
2022/11/26 10:29:25;;;;;;;34.42;9.75;;;;;;;7.08;100.00;102922.19;4993281;28;20026;-76
2022/11/26 10:32:00;;;;;;;30.60;10.35;;;;;;;7.14;100.00;102926.63;5006634;28;20049;-76
2022/11/26 10:34:36;;;;;;;29.23;10.65;;;;;;;7.18;100.00;102923.28;5013424;28;20038;-77
2022/11/26 10:37:02;;;;;;;33.22;11.38;;;;;;;7.23;100.00;102918.25;5011959;28;20484;-77
2022/11/26 10:39:28;;;;;;;39.78;12.50;;;;;;;7.26;100.00;102918.28;5010984;28;20037;-77
2022/11/26 10:41:53;;;;;;;27.90;11.43;;;;;;;7.31;100.00;102914.97;5013551;28;20026;-77
2022/11/26 10:44:40;;;;;;;27.08;11.20;;;;;;;7.39;100.00;102912.59;5010936;28;20117;-77
2022/11/26 10:47:25;;;;;;;28.50;11.15;;;;;;;7.45;100.00;102907.56;5014090;28;20404;-77
2022/11/26 10:49:53;;;;;;;33.25;10.43;;;;;;;7.49;100.00;102901.66;5014363;28;20029;-78
2022/11/26 10:52:27;;;;;;;27.70;8.85;;;;;;;7.49;100.00;102904.22;4995016;28;20041;-77
2022/11/26 10:55:15;;;;;;;26.35;10.20;;;;;;;7.51;100.00;102907.69;4995425;28;20034;-77
2022/11/26 10:57:46;;;;;;;28.73;9.20;;;;;;;7.47;100.00;102903.31;5007031;28;20471;-77
2022/11/26 11:00:35;;;;;;;30.08;9.32;;;;;;;7.51;100.00;102911.13;5012173;28;20080;-77
2022/11/26 11:03:03;;;;;;;26.52;8.80;;;;;;;7.46;100.00;102907.59;5005062;28;20038;-77
2022/11/26 11:05:29;;;;;;;25.42;9.63;;;;;;;7.42;100.00;102904.94;5011718;28;20022;-77
2022/11/26 11:07:54;;;;;;;28.48;9.45;;;;;;;7.40;100.00;102902.31;5010004;28;20104;-77
2022/11/26 11:10:23;;;;;;;29.58;10.10;;;;;;;7.37;100.00;102906.53;5012915;28;20038;-77
2022/11/26 11:13:10;;;;;;;30.00;9.43;;;;;;;7.32;100.00;102900.38;5015683;28;20030;-77
2022/11/26 11:15:39;;;;;;;28.08;9.35;;;;;;;7.23;100.00;102901.06;5007573;28;20059;-77